Time;durP1;ratioP1;P1;durP2;ratioP2;P2;SDS_P1;SDS_P2;PMS_P1;PMS_P2;Temp;Humidity;BMP_temperature;BMP_pressure;BME280_temperature;BME280_humidity;BME280_pressure;Samples;Min_cycle;Max_cycle;Signal;HPM_P1;HPM_P2
2022/10/07 00:00:07;;;;;;;;;;;;;;;;;;5032078;28;19920;-58
2022/10/07 00:02:32;;;;;;;;;;;;;;;;;;5038133;28;20418;-58
2022/10/07 00:04:57;;;;;;;;;;;;;;;;;;5032814;28;19982;-58
2022/10/07 00:07:23;;;;;;;;;;;;;;;;;;5035285;28;19913;-58
2022/10/07 00:09:48;;;;;;;;;;;;;;;;;;5037465;28;20378;-58
2022/10/07 00:12:13;;;;;;;;;;;;;;;;;;5029533;28;19932;-58
2022/10/07 00:14:41;;;;;;;;;;;;;;;;;;5035010;28;20037;-58
2022/10/07 00:17:06;;;;;;;;;;;;;;;;;;5033091;28;19921;-58
2022/10/07 00:19:31;;;;;;;;;;;;;;;;;;5031412;28;19940;-59
2022/10/07 00:21:57;;;;;;;;;;;;;;;;;;5028066;28;19924;-58
2022/10/07 00:24:22;;;;;;;;;;;;;;;;;;5030232;28;19909;-58
2022/10/07 00:26:47;;;;;;;;;;;;;;;;;;5028405;28;19919;-58
2022/10/07 00:29:12;;;;;;;;;;;;;;;;;;5033346;28;19940;-58
2022/10/07 00:31:38;;;;;;;;;;;;;;;;;;5033438;28;19999;-58
2022/10/07 00:34:03;;;;;;;;;;;;;;;;;;5031863;28;19909;-58
2022/10/07 00:36:32;;;;;;;;;;;;;;;;;;5031398;28;19963;-58
2022/10/07 00:39:02;;;;;;;;;;;;;;;;;;5029494;28;19913;-58
2022/10/07 00:41:28;;;;;;;;;;;;;;;;;;5031332;28;19983;-58
2022/10/07 00:43:54;;;;;;;;;;;;;;;;;;5034141;28;19921;-59
2022/10/07 00:46:19;;;;;;;;;;;;;;;;;;5032512;28;19919;-59
2022/10/07 00:48:45;;;;;;;;;;;;;;;;;;5035164;28;19958;-58
2022/10/07 00:51:14;;;;;;;;;;;;;;;;;;5030011;28;19924;-58
2022/10/07 00:53:39;;;;;;;;;;;;;;;;;;5033508;28;19912;-59
2022/10/07 00:56:06;;;;;;;;;;;;;;;;;;5029597;28;19912;-58
2022/10/07 00:58:33;;;;;;;;;;;;;;;;;;5036731;28;19916;-58
2022/10/07 01:00:58;;;;;;;;;;;;;;;;;;5029955;28;19917;-58
2022/10/07 01:03:23;;;;;;;;;;;;;;;;;;5028488;28;19920;-58
2022/10/07 01:05:49;;;;;;;;;;;;;;;;;;5035475;28;19913;-58
2022/10/07 01:08:16;;;;;;;;;;;;;;;;;;5030022;28;19966;-58
2022/10/07 01:10:46;;;;;;;;;;;;;;;;;;5029289;28;20000;-58
2022/10/07 01:13:24;;;;;;;;;;;;;;;;;;5029335;28;20293;-58
2022/10/07 01:15:52;;;;;;;;;;;;;;;;;;5029931;28;19917;-58
2022/10/07 01:18:40;;;;;;;;;;;;;;;;;;5031929;28;19990;-58
2022/10/07 01:21:13;;;;;;;;;;;;;;;;;;5037290;28;20058;-58
2022/10/07 01:23:44;;;;;;;;;;;;;;;;;;5031178;28;19913;-58
2022/10/07 01:26:28;;;;;;;;;;;;;;;;;;5034486;28;19932;-58
2022/10/07 01:29:04;;;;;;;;;;;;;;;;;;5037542;28;19916;-58
2022/10/07 01:31:35;;;;;;;;;;;;;;;;;;5032850;28;19931;-58
2022/10/07 01:34:02;;;;;;;;;;;;;;;;;;5032773;28;19913;-58
2022/10/07 01:36:27;;;;;;;;;;;;;;;;;;5031606;28;19998;-58
2022/10/07 01:39:01;;;;;;;;;;;;;;;;;;5032574;28;19948;-58
2022/10/07 01:41:26;;;;;;;;;;;;;;;;;;5033606;28;19963;-58
2022/10/07 01:43:52;;;;;;;;;;;;;;;;;;5033137;28;19978;-58
2022/10/07 01:46:22;;;;;;;;;;;;;;;;;;5035493;28;19913;-58
2022/10/07 01:48:48;;;;;;;;;;;;;;;;;;5037663;28;19965;-59
2022/10/07 01:51:13;;;;;;;;;;;;;;;;;;5032198;28;19917;-58
2022/10/07 01:53:47;;;;;;;;;;;;;;;;;;5031988;28;19935;-58
2022/10/07 01:56:30;;;;;;;;;;;;;;;;;;5033385;28;20382;-58
2022/10/07 01:59:07;;;;;;;;;;;;;;;;;;5038084;28;20074;-58
2022/10/07 02:01:40;;;;;;;;;;;;;;;;;;5039622;28;20263;-58
2022/10/07 02:04:24;;;;;;;;;;;;;;;;;;5036006;28;19913;-58
2022/10/07 02:06:49;;;;;;;;;;;;;;;;;;5035966;28;19955;-58
2022/10/07 02:09:20;;;;;;;;;;;;;;;;;;5038424;28;19952;-58
2022/10/07 02:11:48;;;;;;;;;;;;;;;;;;5034821;28;20413;-58
2022/10/07 02:14:16;;;;;;;;;;;;;;;;;;5036047;28;20366;-58
2022/10/07 02:17:10;;;;;;;;;;;;;;;;;;5033919;28;19916;-58
2022/10/07 02:19:42;;;;;;;;;;;;;;;;;;5018761;28;20401;-59
2022/10/07 02:22:10;;;;;;;;;;;;;;;;;;5035988;28;19912;-59
2022/10/07 02:24:36;;;;;;;;;;;;;;;;;;5038393;28;19912;-58
2022/10/07 02:27:04;;;;;;;;;;;;;;;;;;5031270;28;19913;-58
2022/10/07 02:29:31;;;;;;;;;;;;;;;;;;5031821;28;19917;-58
2022/10/07 02:31:58;;;;;;;;;;;;;;;;;;5034027;28;20334;-58
2022/10/07 02:34:23;;;;;;;;;;;;;;;;;;5037847;28;19916;-58
2022/10/07 02:36:51;;;;;;;;;;;;;;;;;;5036132;28;20283;-58
2022/10/07 02:39:17;;;;;;;;;;;;;;;;;;5032490;28;19920;-58
2022/10/07 02:42:01;;;;;;;;;;;;;;;;;;5030704;28;19913;-58
2022/10/07 02:44:34;;;;;;;;;;;;;;;;;;5037077;28;19990;-58
2022/10/07 02:46:59;;;;;;;;;;;;;;;;;;5031298;28;19955;-58
2022/10/07 02:49:25;;;;;;;;;;;;;;;;;;5036324;28;19956;-58
2022/10/07 02:51:55;;;;;;;;;;;;;;;;;;5029280;28;19913;-58
2022/10/07 02:54:23;;;;;;;;;;;;;;;;;;5035862;28;20275;-58
2022/10/07 02:56:48;;;;;;;;;;;;;;;;;;5030633;28;19971;-58
2022/10/07 02:59:15;;;;;;;;;;;;;;;;;;5031576;28;20033;-58
2022/10/07 03:01:44;;;;;;;;;;;;;;;;;;5031386;28;19921;-58
2022/10/07 03:04:09;;;;;;;;;;;;;;;;;;5034178;28;20431;-58
2022/10/07 03:06:35;;;;;;;;;;;;;;;;;;5032317;28;20011;-58
2022/10/07 03:09:00;;;;;;;;;;;;;;;;;;5036116;28;20002;-59
2022/10/07 03:11:25;;;;;;;;;;;;;;;;;;5035097;28;19913;-59
2022/10/07 03:13:51;;;;;;;;;;;;;;;;;;5031328;28;19921;-59
2022/10/07 03:16:16;;;;;;;;;;;;;;;;;;5032268;28;19948;-59
2022/10/07 03:18:41;;;;;;;;;;;;;;;;;;5030873;28;19920;-59
2022/10/07 03:21:07;;;;;;;;;;;;;;;;;;5032216;28;19935;-59
2022/10/07 03:23:32;;;;;;;;;;;;;;;;;;5030718;28;19913;-58
2022/10/07 03:25:58;;;;;;;;;;;;;;;;;;5032716;28;20342;-59
2022/10/07 03:28:24;;;;;;;;;;;;;;;;;;5037208;28;19917;-59
2022/10/07 03:30:50;;;;;;;;;;;;;;;;;;5034546;28;19966;-58
2022/10/07 03:33:16;;;;;;;;;;;;;;;;;;5032778;28;19917;-59
2022/10/07 03:35:41;;;;;;;;;;;;;;;;;;5030936;28;19936;-59
2022/10/07 03:38:07;;;;;;;;;;;;;;;;;;5033544;28;19913;-59
2022/10/07 03:40:38;;;;;;;;;;;;;;;;;;5032629;28;19916;-59
2022/10/07 03:43:04;;;;;;;;;;;;;;;;;;5037186;28;20019;-58
2022/10/07 03:45:30;;;;;;;;;;;;;;;;;;5037636;28;20035;-59
2022/10/07 03:47:56;;;;;;;;;;;;;;;;;;5033052;28;19913;-59
2022/10/07 03:50:22;;;;;;;;;;;;;;;;;;5033126;28;19917;-58
2022/10/07 03:52:47;;;;;;;;;;;;;;;;;;5036936;28;19913;-59
2022/10/07 03:55:12;;;;;;;;;;;;;;;;;;5027135;28;20012;-59
2022/10/07 03:57:50;;;;;;;;;;;;;;;;;;5047220;28;19913;-59
2022/10/07 04:00:16;;;;;;;;;;;;;;;;;;5035289;28;19917;-58
2022/10/07 04:02:41;;;;;;;;;;;;;;;;;;5033120;28;20011;-58
2022/10/07 04:05:07;;;;;;;;;;;;;;;;;;5028880;28;20003;-59
2022/10/07 04:07:32;;;;;;;;;;;;;;;;;;5030676;28;20343;-58
2022/10/07 04:09:57;;;;;;;;;;;;;;;;;;5033415;28;19912;-58
2022/10/07 04:12:22;;;;;;;;;;;;;;;;;;5029414;28;20342;-58
2022/10/07 04:14:48;;;;;;;;;;;;;;;;;;5031999;28;20297;-59
2022/10/07 04:17:15;;;;;;;;;;;;;;;;;;5029925;28;19971;-58
2022/10/07 04:19:40;;;;;;;;;;;;;;;;;;5028458;28;19921;-59
2022/10/07 04:22:05;;;;;;;;;;;;;;;;;;5034974;28;19922;-59
2022/10/07 04:24:31;;;;;;;;;;;;;;;;;;5027742;28;19917;-58
2022/10/07 04:26:56;;;;;;;;;;;;;;;;;;5030594;28;20397;-59
2022/10/07 04:29:21;;;;;;;;;;;;;;;;;;5030535;28;19920;-59
2022/10/07 04:31:46;;;;;;;;;;;;;;;;;;5033508;28;19952;-59
2022/10/07 04:34:12;;;;;;;;;;;;;;;;;;5034884;28;19913;-59
2022/10/07 04:36:37;;;;;;;;;;;;;;;;;;5030694;28;19916;-59
2022/10/07 04:39:02;;;;;;;;;;;;;;;;;;5031261;28;19913;-60
2022/10/07 04:41:28;;;;;;;;;;;;;;;;;;5034366;28;19963;-59
2022/10/07 04:43:53;;;;;;;;;;;;;;;;;;5029326;28;19967;-62
2022/10/07 04:46:18;;;;;;;;;;;;;;;;;;5029496;28;19927;-63
2022/10/07 04:48:46;;;;;;;;;;;;;;;;;;5036751;28;20401;-62
2022/10/07 04:51:12;;;;;;;;;;;;;;;;;;5027938;28;19967;-62
2022/10/07 04:53:38;;;;;;;;;;;;;;;;;;5028301;28;19912;-62
2022/10/07 04:56:04;;;;;;;;;;;;;;;;;;5018351;28;20151;-62
2022/10/07 04:58:30;;;;;;;;;;;;;;;;;;5024414;28;19913;-58
2022/10/07 05:00:56;;;;;;;;;;;;;;;;;;5029591;28;19943;-58
2022/10/07 05:03:22;;;;;;;;;;;;;;;;;;5028872;28;20370;-63
2022/10/07 05:05:48;;;;;;;;;;;;;;;;;;5027766;28;19912;-63
2022/10/07 05:08:15;;;;;;;;;;;;;;;;;;5030773;28;20334;-63
2022/10/07 05:10:41;;;;;;;;;;;;;;;;;;5029225;28;19913;-63
2022/10/07 05:13:11;;;;;;;;;;;;;;;;;;5022558;28;19936;-62
2022/10/07 05:15:36;;;;;;;;;;;;;;;;;;5026887;28;20600;-62
2022/10/07 05:18:02;;;;;;;;;;;;;;;;;;5031734;28;19913;-62
2022/10/07 05:20:28;;;;;;;;;;;;;;;;;;5032073;28;19924;-63
2022/10/07 05:22:53;;;;;;;;;;;;;;;;;;5027597;28;20318;-62
2022/10/07 05:25:19;;;;;;;;;;;;;;;;;;5032641;28;19913;-62
2022/10/07 05:27:44;;;;;;;;;;;;;;;;;;5030129;28;19913;-62
2022/10/07 05:30:10;;;;;;;;;;;;;;;;;;5029455;28;19923;-62
2022/10/07 05:32:35;;;;;;;;;;;;;;;;;;5033731;28;20387;-62
2022/10/07 05:35:00;;;;;;;;;;;;;;;;;;5031642;28;20359;-62
2022/10/07 05:37:26;;;;;;;;;;;;;;;;;;5032715;28;19999;-62
2022/10/07 05:39:51;;;;;;;;;;;;;;;;;;5033387;28;20007;-62
2022/10/07 05:42:16;;;;;;;;;;;;;;;;;;5030215;28;19913;-62
2022/10/07 05:44:42;;;;;;;;;;;;;;;;;;5031298;28;20378;-62
2022/10/07 05:47:07;;;;;;;;;;;;;;;;;;5030971;28;20436;-63
2022/10/07 05:49:32;;;;;;;;;;;;;;;;;;5028164;28;20371;-62
2022/10/07 05:51:58;;;;;;;;;;;;;;;;;;5029290;28;19999;-62
2022/10/07 05:54:23;;;;;;;;;;;;;;;;;;5032094;28;20379;-62
2022/10/07 05:56:48;;;;;;;;;;;;;;;;;;5029598;28;19948;-61
2022/10/07 05:59:14;;;;;;;;;;;;;;;;;;5032014;28;20361;-62
2022/10/07 06:01:41;;;;;;;;;;;;;;;;;;5029456;28;19912;-62
2022/10/07 06:04:07;;;;;;;;;;;;;;;;;;5030218;28;19975;-62
2022/10/07 06:06:33;;;;;;;;;;;;;;;;;;5029651;28;19921;-62
2022/10/07 06:13:06;;;;;;;;;;;;;;;;;;5024209;28;19913;-62
2022/10/07 06:14:28;;;;;;;;;;;;;;;;;;5028688;28;19971;-62
2022/10/07 06:16:53;;;;;;;;;;;;;;;;;;5029221;28;19925;-62
2022/10/07 06:19:21;;;;;;;;;;;;;;;;;;5031625;28;19990;-62
2022/10/07 06:21:46;;;;;;;;;;;;;;;;;;5029430;28;19950;-63
2022/10/07 06:24:12;;;;;;;;;;;;;;;;;;5022205;28;19916;-62
2022/10/07 06:26:37;;;;;;;;;;;;;;;;;;5030533;28;19917;-62
2022/10/07 06:29:03;;;;;;;;;;;;;;;;;;5032838;28;19912;-62
2022/10/07 06:31:28;;;;;;;;;;;;;;;;;;5030839;28;19940;-62
2022/10/07 06:33:53;;;;;;;;;;;;;;;;;;5030767;28;19921;-62
2022/10/07 06:36:19;;;;;;;;;;;;;;;;;;5030073;28;20020;-62
2022/10/07 06:38:48;;;;;;;;;;;;;;;;;;5029344;28;19931;-63
2022/10/07 06:41:14;;;;;;;;;;;;;;;;;;5026136;28;20379;-62
2022/10/07 06:43:40;;;;;;;;;;;;;;;;;;5029351;28;19913;-62
2022/10/07 06:46:05;;;;;;;;;;;;;;;;;;5029136;28;20008;-63
2022/10/07 06:48:32;;;;;;;;;;;;;;;;;;5033673;28;19913;-62
2022/10/07 06:50:57;;;;;;;;;;;;;;;;;;5029400;28;20042;-61
2022/10/07 06:53:23;;;;;;;;;;;;;;;;;;5029314;28;20007;-63
2022/10/07 06:55:53;;;;;;;;;;;;;;;;;;5027999;28;19917;-63
2022/10/07 06:58:22;;;;;;;;;;;;;;;;;;5029718;28;20333;-63
2022/10/07 07:00:48;;;;;;;;;;;;;;;;;;5030172;28;19917;-62
2022/10/07 07:03:14;;;;;;;;;;;;;;;;;;5029597;28;19924;-63
2022/10/07 07:05:39;;;;;;;;;;;;;;;;;;5029229;28;19913;-63
2022/10/07 07:08:05;;;;;;;;;;;;;;;;;;5030401;28;19956;-63
2022/10/07 07:10:30;;;;;;;;;;;;;;;;;;5030077;28;19995;-63
2022/10/07 07:12:56;;;;;;;;;;;;;;;;;;5029650;28;20395;-63
2022/10/07 07:15:21;;;;;;;;;;;;;;;;;;5028043;28;20375;-63
2022/10/07 07:17:47;;;;;;;;;;;;;;;;;;5030536;28;19913;-63
2022/10/07 07:20:13;;;;;;;;;;;;;;;;;;5029875;28;19913;-62
2022/10/07 07:22:38;;;;;;;;;;;;;;;;;;5028671;28;19912;-62
2022/10/07 07:25:04;;;;;;;;;;;;;;;;;;5027592;28;20421;-62
2022/10/07 07:27:29;;;;;;;;;;;;;;;;;;5024740;28;19959;-62
2022/10/07 07:29:54;;;;;;;;;;;;;;;;;;5026736;28;19920;-62
2022/10/07 07:32:19;;;;;;;;;;;;;;;;;;5028954;28;20011;-63
2022/10/07 07:34:45;;;;;;;;;;;;;;;;;;5028505;28;19959;-62
2022/10/07 07:37:10;;;;;;;;;;;;;;;;;;5029459;28;19920;-63
2022/10/07 07:39:35;;;;;;;;;;;;;;;;;;5029244;28;19921;-62
2022/10/07 07:42:00;;;;;;;;;;;;;;;;;;5028037;28;19920;-63
2022/10/07 07:44:26;;;;;;;;;;;;;;;;;;5029270;28;19917;-62
2022/10/07 07:46:51;;;;;;;;;;;;;;;;;;5028009;28;19920;-63
2022/10/07 07:49:17;;;;;;;;;;;;;;;;;;5029549;28;19912;-63
2022/10/07 07:51:43;;;;;;;;;;;;;;;;;;5030340;28;19917;-63
2022/10/07 07:54:08;;;;;;;;;;;;;;;;;;5028783;28;19945;-62
2022/10/07 07:56:34;;;;;;;;;;;;;;;;;;5028148;28;19978;-62
2022/10/07 07:59:00;;;;;;;;;;;;;;;;;;5028916;28;20299;-63
2022/10/07 08:01:25;;;;;;;;;;;;;;;;;;5027763;28;20004;-63
2022/10/07 08:03:51;;;;;;;;;;;;;;;;;;5027298;28;20271;-63
2022/10/07 08:06:18;;;;;;;;;;;;;;;;;;5028924;28;19916;-62
2022/10/07 08:08:43;;;;;;;;;;;;;;;;;;5027637;28;20424;-62
2022/10/07 08:11:09;;;;;;;;;;;;;;;;;;5028041;28;19912;-63
2022/10/07 08:13:35;;;;;;;;;;;;;;;;;;5028475;28;19932;-62
2022/10/07 08:16:02;;;;;;;;;;;;;;;;;;5027606;28;19917;-62
2022/10/07 08:18:28;;;;;;;;;;;;;;;;;;5026548;28;19913;-62
2022/10/07 08:20:57;;;;;;;;;;;;;;;;;;5030165;28;19928;-62
2022/10/07 08:23:25;;;;;;;;;;;;;;;;;;5029536;28;19913;-63
2022/10/07 08:25:54;;;;;;;;;;;;;;;;;;5027797;28;19912;-63
2022/10/07 08:28:19;;;;;;;;;;;;;;;;;;5029276;28;19913;-62
2022/10/07 08:30:45;;;;;;;;;;;;;;;;;;5028537;28;19913;-61
2022/10/07 08:33:10;;;;;;;;;;;;;;;;;;5028599;28;20395;-61
2022/10/07 08:35:35;;;;;;;;;;;;;;;;;;5035026;28;20284;-61
2022/10/07 08:38:01;;;;;;;;;;;;;;;;;;5034651;28;19913;-61
2022/10/07 08:40:26;;;;;;;;;;;;;;;;;;5035518;28;19916;-61
2022/10/07 08:42:53;;;;;;;;;;;;;;;;;;5033678;28;19975;-62
2022/10/07 08:45:28;;;;;;;;;;;;;;;;;;5034454;28;19951;-61
2022/10/07 08:47:55;;;;;;;;;;;;;;;;;;5035213;28;20006;-61
2022/10/07 08:50:24;;;;;;;;;;;;;;;;;;5034829;28;19913;-61
2022/10/07 08:52:51;;;;;;;;;;;;;;;;;;5034593;28;20392;-61
2022/10/07 08:55:30;;;;;;;;;;;;;;;;;;5033356;28;19920;-62
2022/10/07 08:58:05;;;;;;;;;;;;;;;;;;5034631;28;19920;-62
2022/10/07 09:00:38;;;;;;;;;;;;;;;;;;5035618;28;19964;-62
2022/10/07 09:03:07;;;;;;;;;;;;;;;;;;5032203;28;19952;-62
2022/10/07 09:05:35;;;;;;;;;;;;;;;;;;5034501;28;19992;-62
2022/10/07 09:08:09;;;;;;;;;;;;;;;;;;5031529;28;20302;-62
2022/10/07 09:10:37;;;;;;;;;;;;;;;;;;5035280;28;20325;-62
2022/10/07 09:13:14;;;;;;;;;;;;;;;;;;5033004;28;19913;-62
2022/10/07 09:15:42;;;;;;;;;;;;;;;;;;5032054;28;19924;-62
2022/10/07 09:18:26;;;;;;;;;;;;;;;;;;5036126;28;20425;-62
2022/10/07 09:20:53;;;;;;;;;;;;;;;;;;5040194;28;20312;-62
2022/10/07 09:23:28;;;;;;;;;;;;;;;;;;5033942;28;19916;-62
2022/10/07 09:25:53;;;;;;;;;;;;;;;;;;5034215;28;19920;-62
2022/10/07 09:28:22;;;;;;;;;;;;;;;;;;5036056;28;19913;-62
2022/10/07 09:30:47;;;;;;;;;;;;;;;;;;5035492;28;19912;-62
2022/10/07 09:33:18;;;;;;;;;;;;;;;;;;5035364;28;19962;-62
2022/10/07 09:36:06;;;;;;;;;;;;;;;;;;5033740;28;19924;-62
2022/10/07 09:38:36;;;;;;;;;;;;;;;;;;5026415;28;19964;-63
2022/10/07 09:41:15;;;;;;;;;;;;;;;;;;5028318;28;19909;-62
2022/10/07 09:43:50;;;;;;;;;;;;;;;;;;5034779;28;19940;-62
2022/10/07 09:46:34;;;;;;;;;;;;;;;;;;5030192;28;19913;-62
2022/10/07 09:49:03;;;;;;;;;;;;;;;;;;5029486;28;19996;-62
2022/10/07 09:51:29;;;;;;;;;;;;;;;;;;5029977;28;19913;-62
2022/10/07 09:53:57;;;;;;;;;;;;;;;;;;5028647;28;19921;-62
2022/10/07 09:56:34;;;;;;;;;;;;;;;;;;5025617;28;20426;-62
2022/10/07 09:59:39;;;;;;;;;;;;;;;;;;5028698;28;19913;-62
2022/10/07 10:02:13;;;;;;;;;;;;;;;;;;5026671;28;19923;-62
2022/10/07 10:04:45;;;;;;;;;;;;;;;;;;5025816;28;19913;-62
2022/10/07 10:07:20;;;;;;;;;;;;;;;;;;5030075;28;20020;-61
2022/10/07 10:09:53;;;;;;;;;;;;;;;;;;5057736;28;20283;-62
2022/10/07 10:12:19;;;;;;;;;;;;;;;;;;5028553;28;19923;-62
2022/10/07 10:14:50;;;;;;;;;;;;;;;;;;5031492;28;19916;-62
2022/10/07 10:17:22;;;;;;;;;;;;;;;;;;5029486;28;19917;-62
2022/10/07 10:19:47;;;;;;;;;;;;;;;;;;5030047;28;20418;-62
2022/10/07 10:22:31;;;;;;;;;;;;;;;;;;5028806;28;19947;-61
2022/10/07 10:27:49;;;;;;;;;;;;;;;;;;5027962;28;19920;-62
2022/10/07 10:30:21;;;;;;;;;;;;;;;;;;5028157;28;19920;-61
2022/10/07 10:33:03;;;;;;;;;;;;;;;;;;5029865;28;19913;-62
2022/10/07 10:35:29;;;;;;;;;;;;;;;;;;5029291;28;20176;-62
2022/10/07 10:37:56;;;;;;;;;;;;;;;;;;5030654;28;19920;-62
2022/10/07 10:40:26;;;;;;;;;;;;;;;;;;5030192;28;19921;-62
2022/10/07 10:42:54;;;;;;;;;;;;;;;;;;5030596;28;19913;-62
2022/10/07 10:45:29;;;;;;;;;;;;;;;;;;5029957;28;19920;-62
2022/10/07 10:48:03;;;;;;;;;;;;;;;;;;5028838;28;19920;-63
2022/10/07 10:50:34;;;;;;;;;;;;;;;;;;5030662;28;19909;-62
2022/10/07 10:53:12;;;;;;;;;;;;;;;;;;5029567;28;20371;-62
2022/10/07 10:55:43;;;;;;;;;;;;;;;;;;5029409;28;19913;-61
2022/10/07 10:58:20;;;;;;;;;;;;;;;;;;5028617;28;20354;-62
2022/10/07 11:00:54;;;;;;;;;;;;;;;;;;5030214;28;19920;-62
2022/10/07 11:03:23;;;;;;;;;;;;;;;;;;5028364;28;19913;-62
2022/10/07 11:05:49;;;;;;;;;;;;;;;;;;5020169;28;20286;-62
2022/10/07 11:08:23;;;;;;;;;;;;;;;;;;5030359;28;20028;-61
2022/10/07 11:10:50;;;;;;;;;;;;;;;;;;5025693;28;20363;-62
2022/10/07 11:13:27;;;;;;;;;;;;;;;;;;5029266;28;19959;-62
2022/10/07 11:15:53;;;;;;;;;;;;;;;;;;5029192;28;19921;-61
2022/10/07 11:18:27;;;;;;;;;;;;;;;;;;5031011;28;20276;-62
2022/10/07 11:20:54;;;;;;;;;;;;;;;;;;5030240;28;19917;-62
2022/10/07 11:23:26;;;;;;;;;;;;;;;;;;5028780;28;19917;-62
2022/10/07 11:25:59;;;;;;;;;;;;;;;;;;5031277;28;19919;-62
2022/10/07 11:28:28;;;;;;;;;;;;;;;;;;5026499;28;19925;-62
2022/10/07 11:31:00;;;;;;;;;;;;;;;;;;5036122;28;19909;-62
2022/10/07 11:33:31;;;;;;;;;;;;;;;;;;5030395;28;19909;-62
2022/10/07 11:36:02;;;;;;;;;;;;;;;;;;5028708;28;19967;-62
2022/10/07 11:38:32;;;;;;;;;;;;;;;;;;5029776;28;19913;-62
2022/10/07 11:41:01;;;;;;;;;;;;;;;;;;5026411;28;20370;-61
2022/10/07 11:43:52;;;;;;;;;;;;;;;;;;5026939;28;19927;-62
2022/10/07 11:46:32;;;;;;;;;;;;;;;;;;5026931;28;19923;-62
2022/10/07 11:48:58;;;;;;;;;;;;;;;;;;5028675;28;20271;-62
2022/10/07 11:51:28;;;;;;;;;;;;;;;;;;5027254;28;19987;-62
2022/10/07 11:53:55;;;;;;;;;;;;;;;;;;5027920;28;19913;-61
2022/10/07 11:56:23;;;;;;;;;;;;;;;;;;5028311;28;19917;-62
2022/10/07 11:59:02;;;;;;;;;;;;;;;;;;5026861;28;19913;-62
2022/10/07 12:01:27;;;;;;;;;;;;;;;;;;5027295;28;20291;-61
2022/10/07 12:04:11;;;;;;;;;;;;;;;;;;5027527;28;19917;-62
2022/10/07 12:06:36;;;;;;;;;;;;;;;;;;5027188;28;19968;-61
2022/10/07 12:09:22;;;;;;;;;;;;;;;;;;5025326;28;20121;-61
2022/10/07 12:11:47;;;;;;;;;;;;;;;;;;5029233;28;20371;-62
2022/10/07 12:14:28;;;;;;;;;;;;;;;;;;5028850;28;19917;-62
2022/10/07 12:16:54;;;;;;;;;;;;;;;;;;5025804;28;20019;-61
2022/10/07 12:19:20;;;;;;;;;;;;;;;;;;5026944;28;19992;-63
2022/10/07 12:21:58;;;;;;;;;;;;;;;;;;5027031;28;20019;-61
2022/10/07 12:24:24;;;;;;;;;;;;;;;;;;5027702;28;19964;-62
2022/10/07 12:26:51;;;;;;;;;;;;;;;;;;5023819;28;19917;-62
2022/10/07 12:29:21;;;;;;;;;;;;;;;;;;5027874;28;20375;-61
2022/10/07 12:31:47;;;;;;;;;;;;;;;;;;5026320;28;19987;-61
2022/10/07 12:34:20;;;;;;;;;;;;;;;;;;5028202;28;20306;-61
2022/10/07 12:36:46;;;;;;;;;;;;;;;;;;5027033;28;20446;-61
2022/10/07 12:39:11;;;;;;;;;;;;;;;;;;5027712;28;19917;-61
2022/10/07 12:41:41;;;;;;;;;;;;;;;;;;5024552;28;19916;-62
2022/10/07 12:44:06;;;;;;;;;;;;;;;;;;5027761;28;19948;-61
2022/10/07 12:46:52;;;;;;;;;;;;;;;;;;5025622;28;20477;-62
2022/10/07 12:49:28;;;;;;;;;;;;;;;;;;5027755;28;19923;-62
2022/10/07 12:51:56;;;;;;;;;;;;;;;;;;5023996;28;19917;-62
2022/10/07 12:54:42;;;;;;;;;;;;;;;;;;5026299;28;19912;-61
2022/10/07 12:57:12;;;;;;;;;;;;;;;;;;5025765;28;20016;-61
2022/10/07 12:59:47;;;;;;;;;;;;;;;;;;5029774;28;19943;-61
2022/10/07 13:02:30;;;;;;;;;;;;;;;;;;5029971;28;19927;-61
2022/10/07 13:05:08;;;;;;;;;;;;;;;;;;5027946;28;19912;-61
2022/10/07 13:07:52;;;;;;;;;;;;;;;;;;5026810;28;19993;-62
2022/10/07 13:10:24;;;;;;;;;;;;;;;;;;5029040;28;19917;-61
2022/10/07 13:12:57;;;;;;;;;;;;;;;;;;5026327;28;19979;-61
2022/10/07 13:15:30;;;;;;;;;;;;;;;;;;5028188;28;19913;-62
2022/10/07 13:18:05;;;;;;;;;;;;;;;;;;5029224;28;19913;-62
2022/10/07 13:20:53;;;;;;;;;;;;;;;;;;5027795;28;19917;-61
2022/10/07 13:23:20;;;;;;;;;;;;;;;;;;5015553;28;19924;-62
2022/10/07 13:25:54;;;;;;;;;;;;;;;;;;5031586;28;20235;-56
2022/10/07 13:28:21;;;;;;;;;;;;;;;;;;5031125;28;19927;-57
2022/10/07 13:30:49;;;;;;;;;;;;;;;;;;5033120;28;19913;-61
2022/10/07 13:33:20;;;;;;;;;;;;;;;;;;5031650;28;19921;-62
2022/10/07 13:35:46;;;;;;;;;;;;;;;;;;5030837;28;19921;-62
2022/10/07 13:38:24;;;;;;;;;;;;;;;;;;5036885;28;20392;-60
2022/10/07 13:41:13;;;;;;;;;;;;;;;;;;5029405;28;20546;-60
2022/10/07 13:43:38;;;;;;;;;;;;;;;;;;5030285;28;20363;-60
2022/10/07 13:46:07;;;;;;;;;;;;;;;;;;5030630;28;19999;-60
2022/10/07 13:48:34;;;;;;;;;;;;;;;;;;5032207;28;20007;-59
2022/10/07 13:51:01;;;;;;;;;;;;;;;;;;5032053;28;19913;-58
2022/10/07 13:53:29;;;;;;;;;;;;;;;;;;5031389;28;19912;-58
2022/10/07 13:56:05;;;;;;;;;;;;;;;;;;5029947;28;19924;-58
2022/10/07 13:58:31;;;;;;;;;;;;;;;;;;5031555;28;20019;-59
2022/10/07 14:00:57;;;;;;;;;;;;;;;;;;5035947;28;19913;-59
2022/10/07 14:03:22;;;;;;;;;;;;;;;;;;5030842;28;19921;-59
2022/10/07 14:05:51;;;;;;;;;;;;;;;;;;5030843;28;20324;-59
2022/10/07 14:08:20;;;;;;;;;;;;;;;;;;5032270;28;19913;-59
2022/10/07 14:11:03;;;;;;;;;;;;;;;;;;5029119;28;19913;-59
2022/10/07 14:13:29;;;;;;;;;;;;;;;;;;5030702;28;19940;-59
2022/10/07 14:15:56;;;;;;;;;;;;;;;;;;5031451;28;20019;-59
2022/10/07 14:18:21;;;;;;;;;;;;;;;;;;5033229;28;19920;-59
2022/10/07 14:20:50;;;;;;;;;;;;;;;;;;5028347;28;19913;-57
2022/10/07 14:23:29;;;;;;;;;;;;;;;;;;5029465;28;19960;-55
2022/10/07 14:25:55;;;;;;;;;;;;;;;;;;5032743;28;19917;-56
2022/10/07 14:28:23;;;;;;;;;;;;;;;;;;5032846;28;19913;-57
2022/10/07 14:37:20;;;;;;;;;;;;;;;;;;5029634;28;19931;-56
2022/10/07 14:39:46;;;;;;;;;;;;;;;;;;5024970;28;20046;-58
2022/10/07 14:42:31;;;;;;;;;;;;;;;;;;5022146;28;19913;-58
2022/10/07 14:44:56;;;;;;;;;;;;;;;;;;5025599;28;20019;-56
2022/10/07 14:47:30;;;;;;;;;;;;;;;;;;5029107;28;20008;-58
2022/10/07 14:49:56;;;;;;;;;;;;;;;;;;5026015;28;21410;-56
2022/10/07 14:52:26;;;;;;;;;;;;;;;;;;5028137;28;19917;-57
2022/10/07 14:54:53;;;;;;;;;;;;;;;;;;5029740;28;19921;-58
2022/10/07 14:57:18;;;;;;;;;;;;;;;;;;5027786;28;19962;-58
2022/10/07 14:59:44;;;;;;;;;;;;;;;;;;5031028;28;19917;-59
2022/10/07 15:02:12;;;;;;;;;;;;;;;;;;5031234;28;20374;-63
2022/10/07 15:04:39;;;;;;;;;;;;;;;;;;5026042;28;19928;-62
2022/10/07 15:07:04;;;;;;;;;;;;;;;;;;5026850;28;20370;-58
2022/10/07 15:09:29;;;;;;;;;;;;;;;;;;5034611;28;19912;-58
2022/10/07 15:11:55;;;;;;;;;;;;;;;;;;5032478;28;20516;-58
2022/10/07 15:14:20;;;;;;;;;;;;;;;;;;5032821;28;19917;-57
2022/10/07 15:16:46;;;;;;;;;;;;;;;;;;5030841;28;20011;-63
2022/10/07 15:19:11;;;;;;;;;;;;;;;;;;5031505;28;19921;-63
2022/10/07 15:21:37;;;;;;;;;;;;;;;;;;5032427;28;19916;-64
2022/10/07 15:24:02;;;;;;;;;;;;;;;;;;5030533;28;19913;-63
2022/10/07 15:26:28;;;;;;;;;;;;;;;;;;5032011;28;20402;-65
2022/10/07 15:28:55;;;;;;;;;;;;;;;;;;5032298;28;20058;-64
2022/10/07 15:31:22;;;;;;;;;;;;;;;;;;5028692;28;19913;-64
2022/10/07 15:33:47;;;;;;;;;;;;;;;;;;5030461;28;19913;-63
2022/10/07 15:36:13;;;;;;;;;;;;;;;;;;5030440;28;19924;-64
2022/10/07 15:38:39;;;;;;;;;;;;;;;;;;5028941;28;19912;-64
2022/10/07 15:41:05;;;;;;;;;;;;;;;;;;5030510;28;19924;-64
2022/10/07 15:43:31;;;;;;;;;;;;;;;;;;5029733;28;19913;-64
2022/10/07 15:45:57;;;;;;;;;;;;;;;;;;5029026;28;20031;-64
2022/10/07 15:48:23;;;;;;;;;;;;;;;;;;5029201;28;19920;-64
2022/10/07 15:50:49;;;;;;;;;;;;;;;;;;5030125;28;19913;-64
2022/10/07 15:53:15;;;;;;;;;;;;;;;;;;5031961;28;20329;-64
2022/10/07 15:55:54;;;;;;;;;;;;;;;;;;5028803;28;19916;-63
2022/10/07 15:58:21;;;;;;;;;;;;;;;;;;5026380;28;19913;-62
2022/10/07 16:01:05;;;;;;;;;;;;;;;;;;5033637;28;19960;-64
2022/10/07 16:03:37;;;;;;;;;;;;;;;;;;5027683;28;20006;-61
2022/10/07 16:06:03;;;;;;;;;;;;;;;;;;5027527;28;19921;-63
2022/10/07 16:08:29;;;;;;;;;;;;;;;;;;5028619;28;19942;-64
2022/10/07 16:10:59;;;;;;;;;;;;;;;;;;5024963;28;20290;-63
2022/10/07 16:13:25;;;;;;;;;;;;;;;;;;5029498;28;19924;-63
2022/10/07 16:15:58;;;;;;;;;;;;;;;;;;5029077;28;20008;-63
2022/10/07 16:18:24;;;;;;;;;;;;;;;;;;5027454;28;20355;-63
2022/10/07 16:20:49;;;;;;;;;;;;;;;;;;5028900;28;20004;-63
2022/10/07 16:23:14;;;;;;;;;;;;;;;;;;5030021;28;19916;-62
2022/10/07 16:25:39;;;;;;;;;;;;;;;;;;5030392;28;19913;-64
2022/10/07 16:30:51;;;;;;;;;;;;;;;;;;5018563;28;19931;-63
2022/10/07 16:33:18;;;;;;;;;;;;;;;;;;5027462;28;19996;-64
2022/10/07 16:35:43;;;;;;;;;;;;;;;;;;5028646;28;20272;-63
2022/10/07 16:38:08;;;;;;;;;;;;;;;;;;5029017;28;20004;-63
2022/10/07 16:40:34;;;;;;;;;;;;;;;;;;5027017;28;19916;-62
2022/10/07 16:42:59;;;;;;;;;;;;;;;;;;5028498;28;19917;-63
2022/10/07 16:45:25;;;;;;;;;;;;;;;;;;5026907;28;19924;-63
2022/10/07 16:47:50;;;;;;;;;;;;;;;;;;5028667;28;19921;-64
2022/10/07 16:50:15;;;;;;;;;;;;;;;;;;5027693;28;19913;-63
2022/10/07 16:52:41;;;;;;;;;;;;;;;;;;5028776;28;19940;-62
2022/10/07 16:55:06;;;;;;;;;;;;;;;;;;5027357;28;20364;-63
2022/10/07 16:57:33;;;;;;;;;;;;;;;;;;5032934;28;19917;-63
2022/10/07 16:59:58;;;;;;;;;;;;;;;;;;5034659;28;19921;-63
2022/10/07 17:02:24;;;;;;;;;;;;;;;;;;5033964;28;19912;-63
2022/10/07 17:04:49;;;;;;;;;;;;;;;;;;5031123;28;19999;-64
2022/10/07 17:07:14;;;;;;;;;;;;;;;;;;5032714;28;19923;-63
2022/10/07 17:09:40;;;;;;;;;;;;;;;;;;5032605;28;20329;-63